createdAt,value
2023-05-20T00:00:01.753Z,4.00
2023-05-20T00:02:30.089Z,6.43
2023-05-20T00:04:58.241Z,4.43
2023-05-20T00:07:26.299Z,4.45
2023-05-20T00:09:55.981Z,4.90
2023-05-20T00:12:24.037Z,4.13
2023-05-20T00:14:53.740Z,4.38
2023-05-20T00:17:22.577Z,5.07
2023-05-20T00:19:50.652Z,5.43
2023-05-20T00:22:18.790Z,4.35
2023-05-20T00:24:46.834Z,3.75
2023-05-20T00:27:17.146Z,4.40
2023-05-20T00:29:45.333Z,7.05
2023-05-20T00:32:14.273Z,4.07
2023-05-20T00:34:44.350Z,7.18
2023-05-20T00:37:12.522Z,4.18
2023-05-20T00:39:41.068Z,4.03
2023-05-20T00:42:09.106Z,4.50
2023-05-20T00:44:38.529Z,4.32
2023-05-20T00:47:06.815Z,4.20
2023-05-20T00:49:34.886Z,4.25
2023-05-20T00:52:02.936Z,4.28
2023-05-20T00:54:30.990Z,4.80
2023-05-20T00:56:59.494Z,4.10
2023-05-20T00:59:27.598Z,4.00
2023-05-20T01:01:57.113Z,3.55
2023-05-20T01:04:25.972Z,3.58
2023-05-20T01:06:54.061Z,4.15
2023-05-20T01:09:22.111Z,3.92
2023-05-20T01:11:53.027Z,5.22
2023-05-20T01:14:21.168Z,3.92
2023-05-20T01:16:49.953Z,4.03
2023-05-20T01:19:24.922Z,3.67
2023-05-20T01:21:53.084Z,3.50
2023-05-20T01:24:23.177Z,4.85
2023-05-20T01:26:51.281Z,4.38
2023-05-20T01:29:19.604Z,4.88
2023-05-20T01:31:47.870Z,4.75
2023-05-20T01:34:16.034Z,3.80
2023-05-20T01:36:44.118Z,3.80
2023-05-20T01:39:13.782Z,3.92
2023-05-20T01:41:43.551Z,3.83
2023-05-20T01:44:11.587Z,3.63
2023-05-20T01:46:39.717Z,5.00
2023-05-20T01:49:08.276Z,3.80
2023-05-20T01:51:36.990Z,5.05
2023-05-20T01:54:05.118Z,4.28
2023-05-20T01:56:33.226Z,3.70
2023-05-20T01:59:02.750Z,3.53
2023-05-20T02:01:30.853Z,4.13
2023-05-20T02:03:59.010Z,4.72
2023-05-20T02:06:27.330Z,4.13
2023-05-20T02:08:56.422Z,4.43
2023-05-20T02:11:24.511Z,4.55
2023-05-20T02:13:55.708Z,7.70
2023-05-20T02:16:25.408Z,4.05
2023-05-20T02:18:53.770Z,4.07
2023-05-20T02:21:22.298Z,4.25
2023-05-20T02:23:50.556Z,3.90
2023-05-20T02:26:18.586Z,3.70
2023-05-20T02:28:46.975Z,3.85
2023-05-20T02:31:15.217Z,4.25
2023-05-20T02:33:44.679Z,3.70
2023-05-20T02:36:13.522Z,3.75
2023-05-20T02:38:41.606Z,3.97
2023-05-20T02:41:12.026Z,3.60
2023-05-20T02:43:40.740Z,3.50
2023-05-20T02:46:08.831Z,3.30
2023-05-20T02:48:36.941Z,4.38
2023-05-20T02:51:07.022Z,4.25
2023-05-20T02:53:35.151Z,3.90
2023-05-20T02:56:03.935Z,4.60
2023-05-20T02:58:33.278Z,3.40
2023-05-20T03:01:01.413Z,3.80
2023-05-20T03:03:29.672Z,3.53
2023-05-20T03:05:57.774Z,3.38
2023-05-20T03:08:27.246Z,4.55
2023-05-20T03:10:55.291Z,3.08
2023-05-20T03:13:23.380Z,3.33
2023-05-20T03:15:51.926Z,3.72
2023-05-20T03:18:20.020Z,5.78
2023-05-20T03:20:48.219Z,6.68
2023-05-20T03:23:16.813Z,3.38
2023-05-20T03:25:46.312Z,3.20
2023-05-20T03:28:14.366Z,3.17
2023-05-20T03:30:42.437Z,3.38
2023-05-20T03:33:11.979Z,5.55
2023-05-20T03:35:40.223Z,3.17
2023-05-20T03:38:08.416Z,3.20
2023-05-20T03:40:38.723Z,3.63
2023-05-20T03:43:08.524Z,4.40
2023-05-20T03:45:36.882Z,3.28
2023-05-20T03:48:07.774Z,5.95
2023-05-20T03:50:36.981Z,3.90
2023-05-20T03:53:05.099Z,4.30
2023-05-20T03:55:40.863Z,4.05
2023-05-20T03:58:11.291Z,3.47
2023-05-20T04:00:41.064Z,3.90
2023-05-20T04:03:09.249Z,3.65
2023-05-20T04:05:37.471Z,3.97
2023-05-20T04:08:13.647Z,2.67
2023-05-20T04:10:42.776Z,4.13
2023-05-20T04:13:14.171Z,12.68
2023-05-20T04:15:42.949Z,3.33
2023-05-20T04:18:13.227Z,4.10
2023-05-20T04:20:42.334Z,4.07
2023-05-20T04:23:11.204Z,3.92
2023-05-20T04:25:41.329Z,5.30
2023-05-20T04:28:10.748Z,3.13
2023-05-20T04:30:40.684Z,3.40
2023-05-20T04:33:08.900Z,3.65
2023-05-20T04:35:37.745Z,3.20
2023-05-20T04:38:07.542Z,4.40
2023-05-20T04:40:35.799Z,2.95
2023-05-20T04:43:04.235Z,5.93
2023-05-20T04:45:33.732Z,2.97
2023-05-20T04:48:04.069Z,4.28
2023-05-20T04:50:32.266Z,3.10
2023-05-20T04:53:00.416Z,3.65
2023-05-20T04:55:30.006Z,4.00
2023-05-20T04:57:58.062Z,4.00
2023-05-20T05:00:26.257Z,3.17
2023-05-20T05:02:55.175Z,3.10
2023-05-20T05:05:24.818Z,3.25
2023-05-20T05:07:54.137Z,4.28
2023-05-20T05:10:23.456Z,5.18
2023-05-20T05:12:51.542Z,4.43
2023-05-20T05:15:19.642Z,4.40
2023-05-20T05:17:48.767Z,3.65
2023-05-20T05:20:17.342Z,3.20
2023-05-20T05:22:46.789Z,2.67
2023-05-20T05:25:14.836Z,4.97
2023-05-20T05:27:44.677Z,3.35
2023-05-20T05:30:12.990Z,3.00
2023-05-20T05:32:41.149Z,2.65
2023-05-20T05:35:10.166Z,7.47
2023-05-20T05:37:38.281Z,3.55
2023-05-20T05:40:09.302Z,3.10
2023-05-20T05:42:37.425Z,3.90
2023-05-20T05:45:06.851Z,3.25
2023-05-20T05:47:35.010Z,3.00
2023-05-20T05:50:03.083Z,2.78
2023-05-20T05:52:34.125Z,3.83
2023-05-20T05:55:03.682Z,4.65
2023-05-20T05:57:33.858Z,3.63
2023-05-20T06:00:04.630Z,2.75
2023-05-20T06:02:46.178Z,3.20
2023-05-20T06:05:22.204Z,3.95
2023-05-20T06:07:50.416Z,3.17
2023-05-20T06:10:20.433Z,2.78
2023-05-20T06:12:49.927Z,2.50
2023-05-20T06:15:19.001Z,3.13
2023-05-20T06:17:47.329Z,4.93
2023-05-20T06:20:16.720Z,3.67
2023-05-20T06:22:45.196Z,3.08
2023-05-20T06:25:13.976Z,5.90
2023-05-20T06:27:42.845Z,4.95
2023-05-20T06:30:15.225Z,6.32
2023-05-20T06:32:43.389Z,5.97
2023-05-20T06:35:12.550Z,5.78
2023-05-20T06:37:41.040Z,4.72
2023-05-20T06:40:10.524Z,6.85
2023-05-20T06:42:38.656Z,5.78
2023-05-20T06:45:08.345Z,8.65
2023-05-20T06:47:43.440Z,9.00
2023-05-20T06:50:12.154Z,6.78
2023-05-20T06:52:40.204Z,6.70
2023-05-20T06:55:10.648Z,6.45
2023-05-20T06:57:38.690Z,9.05
2023-05-20T07:00:08.069Z,6.13
2023-05-20T07:02:40.652Z,5.40
2023-05-20T07:05:11.002Z,9.95
2023-05-20T07:07:39.205Z,30.13
2023-05-20T07:10:08.625Z,19.17
2023-05-20T07:12:37.046Z,13.32
2023-05-20T07:15:06.224Z,13.57
2023-05-20T07:17:35.238Z,9.20
2023-05-20T07:20:05.083Z,8.18
2023-05-20T07:22:35.137Z,7.25
2023-05-20T07:25:21.856Z,6.80
2023-05-20T07:27:50.446Z,7.63
2023-05-20T07:30:18.464Z,6.70
2023-05-20T07:32:55.813Z,5.88
2023-05-20T07:35:24.601Z,9.68
2023-05-20T07:37:54.056Z,6.90
2023-05-20T07:40:23.193Z,12.90
2023-05-20T07:42:51.442Z,6.00
2023-05-20T07:45:19.771Z,7.63
2023-05-20T07:47:47.858Z,6.13
2023-05-20T07:50:15.951Z,10.30
2023-05-20T07:52:56.160Z,6.70
2023-05-20T07:55:28.790Z,8.25
2023-05-20T07:57:58.040Z,7.78
2023-05-20T08:00:26.582Z,7.15
2023-05-20T08:02:54.887Z,9.95
2023-05-20T08:05:31.051Z,7.70
2023-05-20T08:08:01.007Z,6.20
2023-05-20T08:10:33.303Z,7.25
2023-05-20T08:13:01.499Z,6.47
2023-05-20T08:15:29.699Z,8.30
2023-05-20T08:17:58.328Z,7.70
2023-05-20T08:20:26.777Z,7.90
2023-05-20T08:22:54.895Z,9.85
2023-05-20T08:25:23.775Z,7.53
2023-05-20T08:27:53.902Z,8.70
2023-05-20T08:30:22.351Z,8.38
2023-05-20T08:32:50.638Z,6.70
2023-05-20T08:35:18.870Z,8.13
2023-05-20T08:37:46.922Z,8.73
2023-05-20T08:40:15.719Z,6.93
2023-05-20T08:42:44.093Z,8.75
2023-05-20T08:45:14.940Z,5.85
2023-05-20T08:47:43.651Z,9.52
2023-05-20T08:50:12.514Z,5.78
2023-05-20T08:52:44.425Z,6.93
2023-05-20T08:55:15.348Z,8.45
2023-05-20T08:57:45.882Z,6.32
2023-05-20T09:00:17.240Z,7.53
2023-05-20T09:02:46.538Z,6.40
2023-05-20T09:05:14.736Z,6.00
2023-05-20T09:07:43.783Z,5.90
2023-05-20T09:10:12.064Z,6.72
2023-05-20T09:12:40.100Z,6.25
2023-05-20T09:15:09.434Z,9.55
2023-05-20T09:17:38.956Z,6.47
2023-05-20T09:20:11.342Z,8.75
2023-05-20T09:22:40.200Z,8.32
2023-05-20T09:25:09.547Z,6.00
2023-05-20T09:27:37.832Z,6.10
2023-05-20T09:30:08.544Z,5.20
2023-05-20T09:32:38.415Z,5.72
2023-05-20T09:35:07.520Z,6.68
2023-05-20T09:37:36.050Z,5.90
2023-05-20T09:40:09.255Z,6.07
2023-05-20T09:42:40.112Z,9.55
2023-05-20T09:45:09.511Z,25.58
2023-05-20T09:47:39.849Z,9.35
2023-05-20T09:50:09.161Z,6.50
2023-05-20T09:52:37.579Z,7.20
2023-05-20T09:55:06.861Z,7.15
2023-05-20T09:57:35.897Z,7.95
2023-05-20T10:00:05.084Z,8.63
2023-05-20T10:02:43.172Z,7.32
2023-05-20T10:05:15.368Z,13.00
2023-05-20T10:08:03.592Z,9.38
2023-05-20T10:10:39.971Z,9.48
2023-05-20T10:13:19.104Z,10.98
2023-05-20T10:15:51.090Z,8.80
2023-05-20T10:18:28.579Z,9.65
2023-05-20T10:20:56.637Z,8.95
2023-05-20T10:23:24.683Z,8.50
2023-05-20T10:25:53.541Z,8.07
2023-05-20T10:28:29.923Z,9.63
2023-05-20T10:30:58.091Z,8.68
2023-05-20T10:33:28.594Z,7.80
2023-05-20T10:35:59.146Z,7.63
2023-05-20T10:38:27.291Z,9.63
2023-05-20T10:40:57.480Z,10.30
2023-05-20T10:43:27.966Z,9.55
2023-05-20T10:45:57.526Z,9.93
2023-05-20T10:48:27.679Z,8.05
2023-05-20T10:50:56.905Z,9.43
2023-05-20T10:53:33.638Z,8.07
2023-05-20T10:56:02.441Z,8.13
2023-05-20T10:58:38.015Z,9.57
2023-05-20T11:01:06.207Z,11.85
2023-05-20T11:03:36.260Z,16.02
2023-05-20T11:06:12.692Z,13.75
2023-05-20T11:08:40.788Z,11.63
2023-05-20T11:11:08.964Z,10.30
2023-05-20T11:13:37.078Z,11.63
2023-05-20T11:16:05.862Z,9.82
2023-05-20T11:18:35.333Z,11.27
2023-05-20T11:21:03.446Z,10.20
2023-05-20T11:23:31.886Z,9.70
2023-05-20T11:25:59.966Z,12.05
2023-05-20T11:28:28.083Z,9.90
2023-05-20T11:30:56.475Z,11.25
2023-05-20T11:33:26.888Z,11.80
2023-05-20T11:35:56.426Z,9.80
2023-05-20T11:38:24.757Z,11.73
2023-05-20T11:40:54.173Z,10.60
2023-05-20T11:43:22.863Z,10.32
2023-05-20T11:45:54.711Z,12.48
2023-05-20T11:48:22.870Z,11.82
2023-05-20T11:50:50.913Z,11.13
2023-05-20T11:53:20.664Z,8.80
2023-05-20T11:55:49.653Z,10.20
2023-05-20T11:58:17.901Z,8.68
2023-05-20T12:00:52.759Z,12.23
2023-05-20T12:03:25.317Z,10.60
2023-05-20T12:05:54.081Z,9.95
2023-05-20T12:08:23.782Z,9.82
2023-05-20T12:10:51.921Z,9.55
2023-05-20T12:13:19.938Z,8.57
2023-05-20T12:15:48.005Z,10.00
2023-05-20T12:18:16.114Z,9.40
2023-05-20T12:20:44.181Z,10.43
2023-05-20T12:23:12.312Z,8.88
2023-05-20T12:25:41.693Z,9.70
2023-05-20T12:28:09.803Z,10.13
2023-05-20T12:30:37.822Z,10.75
2023-05-20T12:33:06.627Z,10.38
2023-05-20T12:35:38.945Z,9.07
2023-05-20T12:38:07.272Z,8.40
2023-05-20T12:40:35.706Z,9.90
2023-05-20T12:43:05.875Z,8.52
2023-05-20T12:45:33.965Z,11.38
2023-05-20T12:48:02.015Z,9.20
2023-05-20T12:50:30.159Z,10.07
2023-05-20T12:52:58.209Z,8.73
2023-05-20T12:55:26.263Z,8.43
2023-05-20T12:57:56.015Z,8.82
2023-05-20T13:00:25.488Z,11.10
2023-05-20T13:02:54.776Z,9.65
2023-05-20T13:05:23.555Z,9.88
2023-05-20T13:07:51.599Z,8.90
2023-05-20T13:10:19.900Z,8.73
2023-05-20T13:12:47.958Z,8.20
2023-05-20T13:15:16.193Z,10.80
2023-05-20T13:17:45.742Z,15.05
2023-05-20T13:20:14.561Z,12.27
2023-05-20T13:22:42.704Z,11.25
2023-05-20T13:25:11.003Z,11.07
2023-05-20T13:27:39.031Z,12.23
2023-05-20T13:30:08.492Z,12.18
2023-05-20T13:32:36.684Z,11.80
2023-05-20T13:35:07.141Z,10.88
2023-05-20T13:37:35.267Z,11.05
2023-05-20T13:40:03.444Z,9.43
2023-05-20T13:42:31.541Z,10.27
2023-05-20T13:44:59.594Z,12.02
2023-05-20T13:47:27.802Z,9.50
2023-05-20T13:49:55.996Z,10.95
2023-05-20T13:52:25.480Z,12.02
2023-05-20T13:54:53.559Z,12.55
2023-05-20T13:57:21.696Z,11.02
2023-05-20T13:59:49.761Z,12.32
2023-05-20T14:02:18.083Z,12.90
2023-05-20T14:04:47.135Z,9.75
2023-05-20T14:07:15.335Z,12.48
2023-05-20T14:09:44.794Z,9.93
2023-05-20T14:12:12.895Z,12.20
2023-05-20T14:14:40.910Z,12.48
2023-05-20T14:17:08.943Z,10.43
2023-05-20T14:19:37.244Z,13.85
2023-05-20T14:22:05.712Z,8.90
2023-05-20T14:24:33.832Z,10.25
2023-05-20T14:27:03.370Z,11.10
2023-05-20T14:29:31.481Z,9.60
2023-05-20T14:32:01.407Z,9.63
2023-05-20T14:34:29.564Z,9.80
2023-05-20T14:36:58.009Z,10.82
2023-05-20T14:39:26.113Z,9.95
2023-05-20T14:41:54.201Z,9.63
2023-05-20T14:44:23.612Z,10.75
2023-05-20T14:46:51.710Z,11.13
2023-05-20T14:49:19.718Z,9.73
2023-05-20T14:51:47.718Z,10.50
2023-05-20T14:54:16.017Z,11.00
2023-05-20T14:56:44.051Z,10.32
2023-05-20T14:59:12.194Z,9.85
2023-05-20T15:01:41.598Z,10.40
2023-05-20T15:04:09.651Z,9.55
2023-05-20T15:06:38.461Z,8.98
2023-05-20T15:09:07.424Z,10.25
2023-05-20T15:11:35.578Z,8.80
2023-05-20T15:14:03.671Z,11.32
2023-05-20T15:16:31.746Z,9.88
2023-05-20T15:19:01.300Z,8.73
2023-05-20T15:21:29.344Z,9.70
2023-05-20T15:23:57.421Z,9.32
2023-05-20T15:26:26.059Z,9.43
2023-05-20T15:28:54.211Z,9.20
2023-05-20T15:31:22.226Z,9.13
2023-05-20T15:33:50.446Z,9.60
2023-05-20T15:36:19.969Z,9.02
2023-05-20T15:38:48.021Z,10.68
2023-05-20T15:41:16.187Z,9.48
2023-05-20T15:43:44.326Z,9.30
2023-05-20T15:46:12.592Z,9.38
2023-05-20T15:48:41.211Z,8.65
2023-05-20T15:51:09.256Z,10.20
2023-05-20T15:53:40.645Z,9.75
2023-05-20T15:56:10.135Z,13.07
2023-05-20T15:58:38.147Z,11.60
2023-05-20T16:01:06.795Z,8.23
2023-05-20T16:03:35.009Z,8.73
2023-05-20T16:06:03.061Z,14.95
2023-05-20T16:08:31.488Z,9.43
2023-05-20T16:11:00.882Z,10.15
2023-05-20T16:13:29.036Z,12.00
2023-05-20T16:15:57.958Z,9.07
2023-05-20T16:18:28.550Z,10.25
2023-05-20T16:20:56.782Z,11.90
2023-05-20T16:23:24.981Z,10.45
2023-05-20T16:25:53.036Z,13.63
2023-05-20T16:28:22.525Z,10.50
2023-05-20T16:30:50.645Z,13.35
2023-05-20T16:33:18.754Z,10.95
2023-05-20T16:35:46.838Z,10.55
2023-05-20T16:38:14.938Z,10.30
2023-05-20T16:40:42.947Z,13.02
2023-05-20T16:43:11.183Z,11.50
2023-05-20T16:45:40.640Z,9.75
2023-05-20T16:48:08.681Z,10.77
2023-05-20T16:50:36.745Z,14.02
2023-05-20T16:53:04.791Z,10.60
2023-05-20T16:55:32.928Z,10.68
2023-05-20T16:58:00.968Z,12.05
2023-05-20T17:00:29.217Z,11.38
2023-05-20T17:02:58.655Z,12.57
2023-05-20T17:05:26.787Z,13.35
2023-05-20T17:07:58.995Z,13.52
2023-05-20T17:10:28.544Z,11.35
2023-05-20T17:12:56.702Z,12.68
2023-05-20T17:15:25.572Z,14.40
2023-05-20T17:17:53.757Z,12.90
2023-05-20T17:20:23.279Z,12.13
2023-05-20T17:22:51.481Z,12.18
2023-05-20T17:25:19.601Z,12.18
2023-05-20T17:27:47.635Z,11.50
2023-05-20T17:30:15.706Z,15.60
2023-05-20T17:32:43.758Z,13.10
2023-05-20T17:35:11.955Z,11.82
2023-05-20T17:37:41.403Z,11.85
2023-05-20T17:40:10.409Z,13.35
2023-05-20T17:42:38.412Z,9.77
2023-05-20T17:45:07.655Z,14.35
2023-05-20T17:47:35.747Z,11.65
2023-05-20T17:50:03.841Z,13.52
2023-05-20T17:52:31.875Z,10.48
2023-05-20T17:55:01.301Z,10.18
2023-05-20T17:57:29.338Z,11.00
2023-05-20T17:59:57.748Z,10.43
2023-05-20T18:02:25.805Z,12.82
2023-05-20T18:04:53.957Z,11.60
2023-05-20T18:07:22.021Z,13.10
2023-05-20T18:09:50.086Z,11.18
2023-05-20T18:12:19.487Z,12.32
2023-05-20T18:14:47.530Z,10.43
2023-05-20T18:17:15.699Z,10.73
2023-05-20T18:19:43.798Z,11.63
2023-05-20T18:22:11.812Z,11.55
2023-05-20T18:24:39.915Z,10.45
2023-05-20T18:27:07.954Z,12.73
2023-05-20T18:29:37.450Z,10.50
2023-05-20T18:32:06.386Z,10.85
2023-05-20T18:34:34.705Z,9.95
2023-05-20T18:37:02.746Z,12.32
2023-05-20T18:39:30.799Z,11.75
2023-05-20T18:41:58.839Z,9.75
2023-05-20T18:44:26.905Z,10.23
2023-05-20T18:46:56.925Z,8.80
2023-05-20T18:49:24.981Z,9.07
2023-05-20T18:51:53.018Z,8.52
2023-05-20T18:54:21.096Z,10.80
2023-05-20T18:56:49.632Z,7.50
2023-05-20T18:59:17.707Z,8.40
2023-05-20T19:01:45.801Z,7.47
2023-05-20T19:04:15.695Z,7.57
2023-05-20T19:06:43.701Z,11.10
2023-05-20T19:09:11.779Z,10.48
2023-05-20T19:11:39.862Z,9.70
2023-05-20T19:14:07.962Z,8.93
2023-05-20T19:16:36.078Z,7.68
2023-05-20T19:19:04.223Z,7.85
2023-05-20T19:21:33.616Z,8.70
2023-05-20T19:24:01.735Z,7.72
2023-05-20T19:26:29.808Z,10.65
2023-05-20T19:28:57.948Z,7.95
2023-05-20T19:31:26.122Z,7.38
2023-05-20T19:33:54.305Z,7.85
2023-05-20T19:36:22.351Z,8.73
2023-05-20T19:38:51.850Z,7.72
2023-05-20T19:41:19.988Z,8.00
2023-05-20T19:43:48.030Z,9.57
2023-05-20T19:46:16.832Z,9.30
2023-05-20T19:48:44.922Z,8.10
2023-05-20T19:51:12.999Z,8.85
2023-05-20T19:53:41.025Z,8.63
2023-05-20T19:56:10.525Z,8.90
2023-05-20T19:58:38.553Z,8.07
2023-05-20T20:01:06.842Z,8.27
2023-05-20T20:03:35.140Z,8.63
2023-05-20T20:06:04.140Z,10.90
2023-05-20T20:08:32.630Z,7.55
2023-05-20T20:11:00.716Z,9.75
2023-05-20T20:13:30.609Z,9.55
2023-05-20T20:15:58.880Z,8.18
2023-05-20T20:18:27.216Z,10.77
2023-05-20T20:20:55.274Z,7.60
2023-05-20T20:23:23.400Z,7.72
2023-05-20T20:25:51.490Z,13.80
2023-05-20T20:28:19.744Z,12.50
2023-05-20T20:30:49.137Z,8.27
2023-05-20T20:33:17.262Z,7.25
2023-05-20T20:35:45.350Z,6.75
2023-05-20T20:38:13.422Z,7.80
2023-05-20T20:40:42.664Z,7.75
2023-05-20T20:43:11.100Z,8.02
2023-05-20T20:45:39.290Z,9.70
2023-05-20T20:48:08.759Z,7.43
2023-05-20T20:50:36.933Z,7.60
2023-05-20T20:53:04.973Z,8.77
2023-05-20T20:55:34.438Z,6.80
2023-05-20T20:58:05.159Z,7.10
2023-05-20T21:00:33.860Z,7.32
2023-05-20T21:03:02.065Z,7.47
2023-05-20T21:05:31.574Z,9.77
2023-05-20T21:08:03.127Z,7.68
2023-05-20T21:10:31.301Z,7.20
2023-05-20T21:12:59.543Z,7.60
2023-05-20T21:15:27.631Z,7.57
2023-05-20T21:17:55.733Z,6.75
2023-05-20T21:20:24.048Z,7.38
2023-05-20T21:22:53.419Z,9.85
2023-05-20T21:25:21.511Z,8.02
2023-05-20T21:27:49.499Z,7.57
2023-05-20T21:30:19.831Z,7.40
2023-05-20T21:32:47.897Z,8.98
2023-05-20T21:35:16.128Z,8.48
2023-05-20T21:37:44.142Z,6.32
2023-05-20T21:40:14.543Z,7.90
2023-05-20T21:42:42.609Z,6.03
2023-05-20T21:45:11.329Z,7.55
2023-05-20T21:47:39.419Z,5.90
2023-05-20T21:50:08.753Z,8.88
2023-05-20T21:52:36.824Z,6.95
2023-05-20T21:55:05.074Z,7.45
2023-05-20T21:57:34.537Z,7.60
2023-05-20T22:00:02.590Z,7.45
2023-05-20T22:02:32.983Z,7.03
2023-05-20T22:05:01.450Z,8.40
2023-05-20T22:07:29.493Z,6.82
2023-05-20T22:09:57.638Z,6.68
2023-05-20T22:12:25.644Z,7.32
2023-05-20T22:14:55.074Z,7.18
2023-05-20T22:17:24.038Z,8.00
2023-05-20T22:19:54.063Z,7.35
2023-05-20T22:22:22.155Z,7.50
2023-05-20T22:24:50.248Z,7.13
2023-05-20T22:27:18.309Z,7.05
2023-05-20T22:29:46.294Z,6.05
2023-05-20T22:32:15.833Z,6.20
2023-05-20T22:34:45.312Z,6.13
2023-05-20T22:37:13.332Z,5.50
2023-05-20T22:39:41.366Z,5.68
2023-05-20T22:42:09.391Z,6.55
2023-05-20T22:44:37.437Z,5.90
2023-05-20T22:47:05.520Z,7.13
2023-05-20T22:49:35.672Z,5.97
2023-05-20T22:52:03.718Z,7.75
2023-05-20T22:54:31.745Z,5.90
2023-05-20T22:56:59.986Z,7.30
2023-05-20T22:59:31.070Z,5.50
2023-05-20T23:01:59.304Z,6.40
2023-05-20T23:04:27.352Z,7.75
2023-05-20T23:06:59.180Z,7.07
2023-05-20T23:09:27.520Z,5.68
2023-05-20T23:11:55.568Z,7.50
2023-05-20T23:14:23.625Z,5.57
2023-05-20T23:16:51.661Z,5.60
2023-05-20T23:19:19.791Z,5.95
2023-05-20T23:21:47.912Z,5.60
2023-05-20T23:24:17.825Z,6.03
2023-05-20T23:26:45.832Z,6.20
2023-05-20T23:29:14.076Z,6.25
2023-05-20T23:31:42.184Z,6.00
2023-05-20T23:34:10.359Z,5.40
2023-05-20T23:36:42.141Z,7.32
2023-05-20T23:39:10.417Z,5.75
2023-05-20T23:41:39.957Z,5.80
2023-05-20T23:44:07.997Z,6.03
2023-05-20T23:46:38.049Z,6.38
2023-05-20T23:49:06.822Z,5.88
2023-05-20T23:51:35.517Z,5.38
2023-05-20T23:54:03.621Z,5.15
2023-05-20T23:56:31.634Z,5.65
2023-05-20T23:59:01.168Z,5.25
